Time;durP1;ratioP1;P1;durP2;ratioP2;P2;SDS_P1;SDS_P2;PMS_P1;PMS_P2;Temp;Humidity;BMP_temperature;BMP_pressure;BME280_temperature;BME280_humidity;BME280_pressure;Samples;Min_cycle;Max_cycle;Signal;HPM_P1;HPM_P2
2023/07/01 00:00:17;;;;;;;2.20;0.80;;;17.80;91.50;;;;;;5069559;28;20036;-69
2023/07/01 00:02:42;;;;;;;2.65;0.85;;;17.80;91.40;;;;;;5068030;28;20044;-69
2023/07/01 00:05:08;;;;;;;1.67;0.70;;;17.80;91.40;;;;;;5068069;28;20040;-69
2023/07/01 00:07:34;;;;;;;3.35;0.90;;;17.80;91.40;;;;;;5079832;28;20048;-69
2023/07/01 00:10:00;;;;;;;3.78;0.85;;;17.80;91.50;;;;;;5067396;28;20063;-69
2023/07/01 00:12:26;;;;;;;2.55;0.68;;;17.80;91.50;;;;;;5068089;28;20136;-69
2023/07/01 00:14:51;;;;;;;4.15;0.88;;;17.80;91.50;;;;;;5068822;28;20111;-69
2023/07/01 00:17:17;;;;;;;2.28;0.80;;;17.80;91.60;;;;;;5068174;28;20041;-69
2023/07/01 00:19:43;;;;;;;3.90;0.98;;;17.80;91.70;;;;;;5066848;28;20047;-69
2023/07/01 00:22:09;;;;;;;3.42;0.90;;;17.80;91.70;;;;;;5078583;28;20037;-69
2023/07/01 00:24:35;;;;;;;3.70;0.80;;;17.80;91.80;;;;;;5065252;28;20038;-69
2023/07/01 00:27:01;;;;;;;3.45;0.90;;;17.80;91.80;;;;;;5066687;28;20044;-69
2023/07/01 00:29:26;;;;;;;3.13;0.90;;;17.80;91.80;;;;;;5067488;28;20554;-69
2023/07/01 00:31:52;;;;;;;1.50;0.70;;;17.80;91.90;;;;;;5067488;28;20036;-69
2023/07/01 00:34:17;;;;;;;3.13;0.77;;;17.80;91.90;;;;;;5069378;28;20040;-69
2023/07/01 00:36:43;;;;;;;3.45;1.05;;;17.70;92.00;;;;;;5067771;28;20093;-69
2023/07/01 00:39:09;;;;;;;5.80;1.15;;;17.70;92.00;;;;;;5069044;28;20102;-69
2023/07/01 00:41:34;;;;;;;2.00;0.85;;;17.70;92.10;;;;;;5082235;28;20089;-69
2023/07/01 00:44:03;;;;;;;4.70;0.70;;;17.70;92.40;;;;;;5088659;28;20439;-69
2023/07/01 00:46:31;;;;;;;1.73;0.85;;;17.70;92.10;;;;;;5070579;28;20055;-69
2023/07/01 00:48:57;;;;;;;4.25;0.82;;;17.70;92.10;;;;;;5066487;28;21345;-69
2023/07/01 00:51:22;;;;;;;1.42;0.63;;;17.70;92.10;;;;;;5067059;28;20040;-69
2023/07/01 00:53:48;;;;;;;3.13;1.25;;;17.70;92.20;;;;;;5065285;28;20036;-69
2023/07/01 00:56:14;;;;;;;2.95;1.17;;;17.70;92.20;;;;;;5066365;28;20079;-69
2023/07/01 00:58:39;;;;;;;2.33;1.10;;;17.70;92.30;;;;;;5069330;28;20217;-69
2023/07/01 01:01:18;;;;;;;1.67;0.88;;;17.70;92.30;;;;;;5069921;28;20561;-69
2023/07/01 01:03:49;;;;;;;1.98;0.70;;;17.70;92.40;;;;;;5071707;28;20048;-69
2023/07/01 01:06:21;;;;;;;3.42;0.88;;;17.70;92.40;;;;;;5066953;28;20119;-69
2023/07/01 01:08:58;;;;;;;2.72;0.90;;;17.70;92.50;;;;;;5067507;28;20036;-69
2023/07/01 01:11:26;;;;;;;4.38;0.82;;;17.70;92.50;;;;;;5066945;28;20068;-69
2023/07/01 01:13:55;;;;;;;1.63;0.77;;;17.70;92.60;;;;;;5047081;28;20125;-69
2023/07/01 01:16:21;;;;;;;4.07;0.90;;;17.70;92.60;;;;;;5071831;28;20036;-69
2023/07/01 01:18:49;;;;;;;3.13;0.70;;;17.70;92.60;;;;;;5067732;28;20456;-70
2023/07/01 01:21:17;;;;;;;3.22;1.10;;;17.70;92.70;;;;;;5066681;28;20071;-69
2023/07/01 01:23:49;;;;;;;2.38;1.05;;;17.70;92.80;;;;;;5048434;28;20097;-69
2023/07/01 01:26:18;;;;;;;4.57;1.10;;;17.70;92.80;;;;;;5063053;28;20063;-69
2023/07/01 01:28:44;;;;;;;3.92;1.00;;;17.70;92.80;;;;;;5068675;28;20044;-69
2023/07/01 01:31:11;;;;;;;3.80;1.00;;;17.70;92.80;;;;;;5066409;28;20115;-70
2023/07/01 01:33:38;;;;;;;4.40;1.00;;;17.70;92.90;;;;;;5064994;28;20040;-69
2023/07/01 01:36:14;;;;;;;2.10;0.90;;;17.70;92.90;;;;;;5063564;28;20047;-69
2023/07/01 01:38:43;;;;;;;2.83;0.85;;;17.70;93.00;;;;;;5067508;28;20082;-69
2023/07/01 01:41:18;;;;;;;2.30;0.90;;;17.70;93.10;;;;;;5065696;28;20025;-69
2023/07/01 01:44:07;;;;;;;3.67;1.50;;;17.70;93.10;;;;;;5065384;28;20059;-69
2023/07/01 01:46:34;;;;;;;2.95;0.90;;;17.70;93.30;;;;;;5066108;28;20055;-70
2023/07/01 01:49:03;;;;;;;5.38;1.17;;;17.70;93.20;;;;;;5066498;28;20123;-69
2023/07/01 01:51:32;;;;;;;5.80;1.23;;;17.70;93.30;;;;;;5065545;28;20044;-69
2023/07/01 01:53:58;;;;;;;3.88;1.50;;;17.70;93.30;;;;;;5066699;28;20089;-69
2023/07/01 01:56:26;;;;;;;4.20;1.15;;;17.70;93.40;;;;;;5065915;28;20280;-69
2023/07/01 01:58:52;;;;;;;3.53;1.10;;;17.60;93.40;;;;;;5071532;28;20032;-69
2023/07/01 02:01:17;;;;;;;3.17;1.52;;;17.70;93.40;;;;;;5067501;28;20040;-69
2023/07/01 02:03:45;;;;;;;4.63;1.38;;;17.70;93.50;;;;;;5066320;28;20036;-69
2023/07/01 02:06:11;;;;;;;2.92;1.38;;;17.60;93.50;;;;;;5065767;28;20493;-69
2023/07/01 02:08:36;;;;;;;3.90;1.23;;;17.60;93.70;;;;;;5066637;28;20130;-69
2023/07/01 02:11:02;;;;;;;3.67;1.27;;;17.60;93.80;;;;;;5071734;28;20078;-69
2023/07/01 02:13:27;;;;;;;3.58;1.50;;;17.50;93.90;;;;;;5065188;28;20049;-69
2023/07/01 02:15:53;;;;;;;4.25;1.85;;;17.60;94.10;;;;;;5067164;28;20045;-69
2023/07/01 02:18:18;;;;;;;3.75;1.73;;;17.50;94.20;;;;;;5069980;28;20032;-70
2023/07/01 02:20:44;;;;;;;5.20;1.70;;;17.50;94.30;;;;;;5058086;28;20032;-70
2023/07/01 02:23:09;;;;;;;7.43;1.58;;;17.40;94.50;;;;;;5066308;28;20644;-69
2023/07/01 02:25:35;;;;;;;3.58;1.60;;;17.40;94.60;;;;;;5066245;28;20052;-69
2023/07/01 02:28:00;;;;;;;3.85;1.40;;;17.40;95.20;;;;;;5065880;28;20048;-70
2023/07/01 02:30:26;;;;;;;3.53;1.73;;;17.40;95.00;;;;;;5061658;28;20177;-69
2023/07/01 02:32:52;;;;;;;3.83;1.60;;;17.40;95.10;;;;;;5068169;28;20533;-70
2023/07/01 02:35:17;;;;;;;2.83;1.17;;;17.30;95.10;;;;;;5070071;28;20043;-70
2023/07/01 02:37:43;;;;;;;2.92;1.10;;;17.30;95.30;;;;;;5071289;28;20169;-70
2023/07/01 02:40:09;;;;;;;4.40;1.55;;;17.30;95.40;;;;;;5069564;28;20917;-69
2023/07/01 02:42:34;;;;;;;5.25;1.50;;;17.30;95.30;;;;;;5074644;28;20040;-70
2023/07/01 02:45:00;;;;;;;2.70;1.30;;;17.30;95.40;;;;;;5075921;28;20482;-70
2023/07/01 02:47:26;;;;;;;4.57;2.10;;;17.30;95.40;;;;;;5064087;28;20044;-70
2023/07/01 02:49:51;;;;;;;3.22;1.20;;;17.30;95.50;;;;;;5072761;28;20068;-70
2023/07/01 02:52:17;;;;;;;5.80;1.70;;;17.30;95.40;;;;;;5074713;28;20041;-69
2023/07/01 02:54:43;;;;;;;3.47;1.23;;;17.30;95.40;;;;;;5078652;28;20441;-70
2023/07/01 02:57:09;;;;;;;2.40;1.40;;;17.30;95.40;;;;;;5074226;28;20129;-70
2023/07/01 02:59:36;;;;;;;6.32;1.80;;;17.30;95.40;;;;;;5075418;28;20048;-70
2023/07/01 03:02:04;;;;;;;4.78;1.40;;;17.30;95.40;;;;;;5073170;28;20494;-70
2023/07/01 03:04:30;;;;;;;2.33;0.93;;;17.30;95.30;;;;;;5056993;28;20043;-70
2023/07/01 03:06:56;;;;;;;2.55;1.20;;;17.30;95.30;;;;;;5068152;28;20123;-70
2023/07/01 03:09:22;;;;;;;8.10;1.55;;;17.30;95.30;;;;;;5072114;28;20039;-70
2023/07/01 03:11:48;;;;;;;3.42;1.40;;;17.40;95.40;;;;;;5072987;28;20035;-70
2023/07/01 03:14:14;;;;;;;3.42;1.48;;;17.30;95.40;;;;;;5074719;28;20037;-70
2023/07/01 03:16:42;;;;;;;4.05;1.63;;;17.30;95.40;;;;;;5075959;28;20039;-69
2023/07/01 03:19:08;;;;;;;3.80;1.40;;;17.30;95.50;;;;;;5071668;28;20040;-69
2023/07/01 03:21:35;;;;;;;3.80;1.40;;;17.30;95.70;;;;;;5065420;28;20033;-69
2023/07/01 03:24:01;;;;;;;4.07;1.30;;;17.30;95.80;;;;;;5071727;28;20128;-70
2023/07/01 03:26:27;;;;;;;4.15;1.58;;;17.20;95.90;;;;;;5071824;28;20167;-69
2023/07/01 03:28:53;;;;;;;5.03;1.42;;;17.20;96.10;;;;;;5067944;28;20477;-69
2023/07/01 03:31:20;;;;;;;3.88;1.30;;;17.20;96.20;;;;;;5074791;28;20478;-70
2023/07/01 03:33:46;;;;;;;3.28;1.17;;;17.10;96.40;;;;;;5068835;28;20064;-70
2023/07/01 03:36:11;;;;;;;4.43;1.50;;;17.10;96.70;;;;;;5069247;28;20121;-70
2023/07/01 03:38:37;;;;;;;4.05;1.20;;;17.00;97.20;;;;;;5076459;28;20029;-70
2023/07/01 03:41:02;;;;;;;3.60;1.20;;;17.00;97.50;;;;;;5050402;28;20568;-70
2023/07/01 03:43:28;;;;;;;7.03;1.80;;;16.90;97.90;;;;;;5069922;28;20036;-70
2023/07/01 03:45:54;;;;;;;5.60;1.45;;;16.90;98.00;;;;;;5070764;28;20047;-70
2023/07/01 03:48:20;;;;;;;5.95;1.70;;;16.80;98.40;;;;;;5049812;28;20036;-70
2023/07/01 03:50:45;;;;;;;3.58;1.30;;;16.80;98.60;;;;;;5069539;28;20101;-71
2023/07/01 03:53:11;;;;;;;3.92;1.13;;;16.80;98.80;;;;;;5084274;28;20914;-70
2023/07/01 03:55:36;;;;;;;2.40;1.33;;;16.70;99.10;;;;;;5068169;28;20397;-71
2023/07/01 03:58:04;;;;;;;2.60;1.42;;;16.70;99.40;;;;;;5067274;28;20036;-70
2023/07/01 04:00:29;;;;;;;3.00;1.58;;;16.60;99.50;;;;;;5068022;28;20430;-69
2023/07/01 04:02:55;;;;;;;2.28;1.20;;;16.60;99.80;;;;;;5064151;28;20037;-70
2023/07/01 04:05:20;;;;;;;2.25;1.13;;;16.60;99.90;;;;;;5065392;28;20045;-70
2023/07/01 04:07:48;;;;;;;3.22;1.50;;;16.50;99.90;;;;;;5047161;28;20040;-70
2023/07/01 04:10:14;;;;;;;2.83;1.40;;;16.60;99.90;;;;;;5068526;28;20058;-70
2023/07/01 04:12:40;;;;;;;3.13;1.17;;;16.60;99.90;;;;;;5066015;28;20521;-70
2023/07/01 04:15:09;;;;;;;4.63;1.40;;;16.50;99.90;;;;;;5069470;28;20033;-70
2023/07/01 04:17:44;;;;;;;2.42;1.40;;;16.50;99.90;;;;;;5063972;28;20570;-70
2023/07/01 04:20:11;;;;;;;4.27;1.37;;;16.50;99.90;;;;;;5081522;28;20051;-70
2023/07/01 04:22:37;;;;;;;3.88;1.42;;;16.50;99.90;;;;;;5069985;28;20036;-70
2023/07/01 04:25:04;;;;;;;4.75;1.50;;;16.50;99.90;;;;;;5040608;28;1212548;-70
2023/07/01 04:27:30;;;;;;;3.92;1.23;;;16.50;99.90;;;;;;5055937;28;20652;-70
2023/07/01 04:29:55;;;;;;;3.42;1.75;;;16.50;99.90;;;;;;5070702;28;20036;-70
2023/07/01 04:32:21;;;;;;;2.80;1.40;;;16.40;99.90;;;;;;5070579;28;20037;-70
2023/07/01 04:34:48;;;;;;;6.10;1.50;;;16.50;99.90;;;;;;5070885;28;20039;-70
2023/07/01 04:37:13;;;;;;;4.93;1.30;;;16.40;99.90;;;;;;5070484;28;20032;-70
2023/07/01 04:39:39;;;;;;;3.00;1.08;;;16.50;99.90;;;;;;5071948;28;20119;-69
2023/07/01 04:42:05;;;;;;;4.00;1.55;;;16.50;99.90;;;;;;5070947;28;20485;-70
2023/07/01 04:44:32;;;;;;;2.60;1.30;;;16.50;99.90;;;;;;5068081;28;20041;-70
2023/07/01 04:46:57;;;;;;;1.67;0.98;;;16.50;99.90;;;;;;5067278;28;20044;-70
2023/07/01 04:49:23;;;;;;;5.25;1.40;;;16.50;99.90;;;;;;5066356;28;20055;-70
2023/07/01 04:51:49;;;;;;;3.03;1.50;;;16.50;99.90;;;;;;5069710;28;20024;-70
2023/07/01 04:54:14;;;;;;;4.03;1.40;;;16.50;99.90;;;;;;5085054;28;20056;-70
2023/07/01 04:56:40;;;;;;;4.43;1.60;;;16.50;99.90;;;;;;5068902;28;20041;-70
2023/07/01 04:59:06;;;;;;;5.28;1.40;;;16.50;99.90;;;;;;5068600;28;20030;-70
2023/07/01 05:01:32;;;;;;;3.55;1.30;;;16.50;99.90;;;;;;5068182;28;20524;-70
2023/07/01 05:03:57;;;;;;;3.47;1.40;;;16.50;99.90;;;;;;5066451;28;20115;-70
2023/07/01 05:06:23;;;;;;;4.13;1.52;;;16.50;99.90;;;;;;5067773;28;20078;-70
2023/07/01 05:08:48;;;;;;;3.78;1.25;;;16.60;99.90;;;;;;5065665;28;20486;-70
2023/07/01 05:11:14;;;;;;;3.88;1.30;;;16.50;99.90;;;;;;5068364;28;20541;-70
2023/07/01 05:13:39;;;;;;;3.03;1.30;;;16.60;99.90;;;;;;5065809;28;20466;-70
2023/07/01 05:16:05;;;;;;;6.57;1.70;;;16.50;99.90;;;;;;5068423;28;20097;-70
2023/07/01 05:18:31;;;;;;;3.58;1.58;;;16.50;99.90;;;;;;5079485;28;20035;-70
2023/07/01 05:20:56;;;;;;;2.85;1.52;;;16.60;99.90;;;;;;5064184;28;20032;-70
2023/07/01 05:23:22;;;;;;;6.28;1.70;;;16.60;99.90;;;;;;5068069;28;20035;-70
2023/07/01 05:25:48;;;;;;;3.95;1.50;;;16.60;99.90;;;;;;5049170;28;20444;-69
2023/07/01 05:28:14;;;;;;;7.43;1.85;;;16.60;99.90;;;;;;5049438;28;20593;-70
2023/07/01 05:30:40;;;;;;;4.38;1.60;;;16.60;99.90;;;;;;5065784;28;20127;-70
2023/07/01 05:33:05;;;;;;;6.50;1.58;;;16.60;99.90;;;;;;5062509;28;20119;-70
2023/07/01 05:35:31;;;;;;;3.28;1.70;;;16.70;99.90;;;;;;5063790;28;20044;-70
2023/07/01 05:37:56;;;;;;;3.60;1.10;;;16.70;99.90;;;;;;5068229;28;20043;-69
2023/07/01 05:40:22;;;;;;;2.95;1.38;;;16.70;99.90;;;;;;5068625;28;20115;-69
2023/07/01 05:42:48;;;;;;;2.47;1.25;;;16.70;99.90;;;;;;5067916;28;20055;-70
2023/07/01 05:45:13;;;;;;;3.30;1.38;;;16.70;99.90;;;;;;5067651;28;20032;-70
2023/07/01 05:47:39;;;;;;;6.35;1.80;;;16.70;99.90;;;;;;5066973;28;20045;-70
2023/07/01 05:50:05;;;;;;;3.95;1.65;;;16.80;99.90;;;;;;5066337;28;20044;-70
2023/07/01 05:52:31;;;;;;;3.20;1.50;;;16.80;99.90;;;;;;5067119;28;20044;-70
2023/07/01 05:54:57;;;;;;;3.40;1.55;;;16.80;99.90;;;;;;5063208;28;20039;-70
2023/07/01 05:57:22;;;;;;;2.40;1.20;;;16.80;99.90;;;;;;5079258;28;20037;-70
2023/07/01 05:59:48;;;;;;;4.20;1.58;;;16.80;99.90;;;;;;5055443;28;20059;-70
2023/07/01 06:02:14;;;;;;;3.05;1.55;;;16.80;99.90;;;;;;5070186;28;20051;-70
2023/07/01 06:04:39;;;;;;;3.85;1.75;;;16.80;99.90;;;;;;5078547;28;20036;-70
2023/07/01 06:07:05;;;;;;;3.47;1.67;;;16.90;99.90;;;;;;5067428;28;20663;-70
2023/07/01 06:09:31;;;;;;;6.70;1.70;;;16.90;99.90;;;;;;5066065;28;20050;-70
2023/07/01 06:11:56;;;;;;;5.50;1.77;;;16.90;99.90;;;;;;5063699;28;20658;-70
2023/07/01 06:14:22;;;;;;;3.55;1.50;;;16.90;99.90;;;;;;5067037;28;20417;-70
2023/07/01 06:16:47;;;;;;;2.88;1.30;;;16.90;99.90;;;;;;5057426;28;20060;-70
2023/07/01 06:19:13;;;;;;;3.33;1.60;;;16.90;99.90;;;;;;5064407;28;20098;-70
2023/07/01 06:21:38;;;;;;;5.05;1.67;;;16.90;99.90;;;;;;5063480;28;20040;-69
2023/07/01 06:24:04;;;;;;;2.25;1.42;;;16.90;99.90;;;;;;5046461;28;20095;-68
2023/07/01 06:26:30;;;;;;;5.88;1.90;;;16.80;99.90;;;;;;5064548;28;20059;-69
2023/07/01 06:28:55;;;;;;;5.20;1.48;;;16.90;99.90;;;;;;5048165;28;20048;-69
2023/07/01 06:31:21;;;;;;;3.97;1.80;;;16.90;99.90;;;;;;5063434;28;20055;-69
2023/07/01 06:33:47;;;;;;;3.80;1.85;;;16.90;99.90;;;;;;5067804;28;20055;-69
2023/07/01 06:36:17;;;;;;;3.35;1.45;;;16.90;99.90;;;;;;5061678;28;20076;-70
2023/07/01 06:38:43;;;;;;;3.60;1.65;;;16.90;99.90;;;;;;5064958;28;20094;-70
2023/07/01 06:41:09;;;;;;;4.85;2.17;;;16.90;99.90;;;;;;5069138;28;20504;-70
2023/07/01 06:43:41;;;;;;;3.13;1.63;;;16.90;99.90;;;;;;5066489;28;20028;-70
2023/07/01 06:46:07;;;;;;;5.28;1.88;;;16.80;99.90;;;;;;5073161;28;20128;-70
2023/07/01 06:48:33;;;;;;;2.85;1.77;;;16.90;99.90;;;;;;5068668;28;20473;-70
2023/07/01 06:50:58;;;;;;;4.50;1.90;;;16.80;99.90;;;;;;5065611;28;20068;-70
2023/07/01 06:53:25;;;;;;;3.60;1.77;;;16.80;99.90;;;;;;5063981;28;20490;-69
2023/07/01 06:55:50;;;;;;;3.35;1.67;;;16.80;99.90;;;;;;5068951;28;20061;-70
2023/07/01 06:58:16;;;;;;;2.90;1.40;;;16.80;99.90;;;;;;5066448;28;20042;-70
2023/07/01 07:00:42;;;;;;;4.00;1.80;;;16.80;99.90;;;;;;5060315;28;20087;-70
2023/07/01 07:03:08;;;;;;;3.78;1.85;;;16.80;99.90;;;;;;5060202;28;20048;-71
2023/07/01 07:05:34;;;;;;;4.07;1.90;;;16.80;99.90;;;;;;5045444;28;20055;-71
2023/07/01 07:08:00;;;;;;;4.38;2.00;;;16.80;99.90;;;;;;5060604;28;20043;-71
2023/07/01 07:10:25;;;;;;;4.93;1.80;;;16.80;99.90;;;;;;5056135;28;20052;-71
2023/07/01 07:12:51;;;;;;;3.90;1.77;;;16.80;99.90;;;;;;5062944;28;20048;-71
2023/07/01 07:15:17;;;;;;;4.65;1.70;;;16.80;99.90;;;;;;5071768;28;20095;-71
2023/07/01 07:17:42;;;;;;;6.72;2.50;;;16.80;99.90;;;;;;5064703;28;20249;-71
2023/07/01 07:20:08;;;;;;;3.33;1.75;;;16.80;99.90;;;;;;5060481;28;20045;-71
2023/07/01 07:22:34;;;;;;;3.60;1.67;;;16.80;99.90;;;;;;5076890;28;20039;-71
2023/07/01 07:25:00;;;;;;;5.68;1.90;;;16.80;99.90;;;;;;5070451;28;20044;-71
2023/07/01 07:27:25;;;;;;;4.65;2.15;;;16.80;99.90;;;;;;5075587;28;20466;-71
2023/07/01 07:29:51;;;;;;;5.55;2.17;;;16.90;99.90;;;;;;5059613;28;20176;-71
2023/07/01 07:32:17;;;;;;;3.55;1.83;;;16.80;99.90;;;;;;5067549;28;20414;-72
2023/07/01 07:34:42;;;;;;;3.95;2.13;;;16.90;99.90;;;;;;5057514;28;20482;-72
2023/07/01 07:37:08;;;;;;;3.55;2.17;;;16.90;99.90;;;;;;5076258;28;20037;-69
2023/07/01 07:39:34;;;;;;;3.72;1.92;;;16.90;99.90;;;;;;5073434;28;20494;-70
2023/07/01 07:42:00;;;;;;;4.45;2.03;;;16.90;99.90;;;;;;5069953;28;20439;-70
2023/07/01 07:44:25;;;;;;;5.05;1.85;;;16.90;99.90;;;;;;5054195;28;20072;-71
2023/07/01 07:46:51;;;;;;;3.58;1.92;;;16.90;99.90;;;;;;5069523;28;20076;-71
2023/07/01 07:49:16;;;;;;;4.35;1.80;;;16.90;99.90;;;;;;5061417;28;20472;-71
2023/07/01 07:51:43;;;;;;;4.63;1.70;;;16.90;99.90;;;;;;5070312;28;20058;-71
2023/07/01 07:54:08;;;;;;;4.80;1.77;;;16.90;99.90;;;;;;5050004;28;20457;-71
2023/07/01 07:56:34;;;;;;;3.88;1.58;;;16.90;99.90;;;;;;5064230;28;20136;-71
2023/07/01 07:58:59;;;;;;;3.95;2.10;;;16.90;99.90;;;;;;5066852;28;20045;-71
2023/07/01 08:01:25;;;;;;;3.03;1.90;;;16.90;99.90;;;;;;5070595;28;20037;-71
2023/07/01 08:03:50;;;;;;;5.40;2.10;;;16.90;99.90;;;;;;5080697;28;20036;-70
2023/07/01 08:06:17;;;;;;;5.85;2.33;;;16.90;99.90;;;;;;5068185;28;20062;-71
2023/07/01 08:08:42;;;;;;;3.65;2.00;;;16.90;99.90;;;;;;5065407;28;20044;-71
2023/07/01 08:11:08;;;;;;;3.85;1.88;;;16.80;99.90;;;;;;5072298;28;20055;-71
2023/07/01 08:13:34;;;;;;;2.80;1.90;;;16.90;99.90;;;;;;5079213;28;20048;-71
2023/07/01 08:15:59;;;;;;;4.35;2.20;;;16.90;99.90;;;;;;5067420;28;20032;-71
2023/07/01 08:18:25;;;;;;;3.70;2.05;;;17.00;99.90;;;;;;5059913;28;20118;-71
2023/07/01 08:20:50;;;;;;;3.55;1.75;;;17.00;99.90;;;;;;5060331;28;20040;-71
2023/07/01 08:23:16;;;;;;;4.63;2.25;;;17.10;99.90;;;;;;5068713;28;20389;-71
2023/07/01 08:25:43;;;;;;;4.03;2.35;;;17.10;99.90;;;;;;5069921;28;20064;-72
2023/07/01 08:28:09;;;;;;;4.00;2.22;;;17.10;99.90;;;;;;5082647;28;20056;-71
2023/07/01 08:30:35;;;;;;;4.82;2.17;;;17.10;99.90;;;;;;5060732;28;20035;-72
2023/07/01 08:33:01;;;;;;;5.28;2.50;;;17.10;99.90;;;;;;5068067;28;20055;-72
2023/07/01 08:35:28;;;;;;;4.15;2.20;;;17.20;99.90;;;;;;5065043;28;20045;-72
2023/07/01 08:37:53;;;;;;;4.35;2.30;;;17.20;99.90;;;;;;5064823;28;20545;-72
2023/07/01 08:40:19;;;;;;;4.35;1.80;;;17.20;99.90;;;;;;5070389;28;20021;-71
2023/07/01 08:42:50;;;;;;;3.90;2.20;;;17.30;99.90;;;;;;5072191;28;20658;-72
2023/07/01 08:45:15;;;;;;;4.00;2.08;;;17.20;99.90;;;;;;5068561;28;20063;-70
2023/07/01 08:47:41;;;;;;;5.47;2.10;;;17.20;99.90;;;;;;5067930;28;20478;-71
2023/07/01 08:50:09;;;;;;;6.53;3.00;;;17.20;99.90;;;;;;5065308;28;20047;-71
2023/07/01 08:52:47;;;;;;;7.18;3.40;;;17.20;99.90;;;;;;5065860;28;20072;-71
2023/07/01 08:55:13;;;;;;;13.25;5.15;;;17.20;99.90;;;;;;5065154;28;20389;-71
2023/07/01 08:57:40;;;;;;;18.45;6.95;;;17.20;99.90;;;;;;5047458;28;20189;-72
2023/07/01 09:00:12;;;;;;;5.18;2.75;;;17.20;99.90;;;;;;5068492;28;20027;-72
2023/07/01 09:02:39;;;;;;;4.20;2.05;;;17.30;99.90;;;;;;5066968;28;20157;-71
2023/07/01 09:05:05;;;;;;;5.53;2.83;;;17.30;99.90;;;;;;5063744;28;20622;-71
2023/07/01 09:07:30;;;;;;;4.00;2.10;;;17.30;99.90;;;;;;5046972;28;20406;-71
2023/07/01 09:09:57;;;;;;;6.22;3.55;;;17.30;99.90;;;;;;5060871;28;20036;-71
2023/07/01 09:12:29;;;;;;;4.35;2.33;;;17.40;99.90;;;;;;5069910;28;20055;-71
2023/07/01 09:15:03;;;;;;;5.00;2.20;;;17.40;99.90;;;;;;5064437;28;20057;-71
2023/07/01 09:17:34;;;;;;;5.55;2.60;;;17.40;99.90;;;;;;5061198;28;20045;-71
2023/07/01 09:20:04;;;;;;;5.60;2.88;;;17.40;99.90;;;;;;5067785;28;20123;-71
2023/07/01 09:22:30;;;;;;;5.07;2.85;;;17.40;99.90;;;;;;5067463;28;20071;-71
2023/07/01 09:24:56;;;;;;;5.68;3.15;;;17.40;99.90;;;;;;5065366;28;20172;-71
2023/07/01 09:27:22;;;;;;;7.05;2.85;;;17.50;99.90;;;;;;5067533;28;20040;-71
2023/07/01 09:29:48;;;;;;;5.22;2.25;;;17.50;99.90;;;;;;5066771;28;20041;-71
2023/07/01 09:32:31;;;;;;;4.75;2.58;;;17.50;99.90;;;;;;5066510;28;20106;-71
2023/07/01 09:34:57;;;;;;;5.00;1.65;;;17.50;99.90;;;;;;5066007;28;20446;-71
2023/07/01 09:37:26;;;;;;;5.32;2.85;;;17.50;99.90;;;;;;5061586;28;20383;-71
2023/07/01 09:39:52;;;;;;;4.45;2.10;;;17.50;99.90;;;;;;5068475;28;20038;-71
2023/07/01 09:42:18;;;;;;;4.40;2.33;;;17.60;99.90;;;;;;5067514;28;20036;-71
2023/07/01 09:45:07;;;;;;;4.75;2.40;;;17.60;99.90;;;;;;5066372;28;20477;-72
2023/07/01 09:47:33;;;;;;;3.95;2.05;;;17.60;99.90;;;;;;5060468;28;20731;-71
2023/07/01 09:49:59;;;;;;;3.65;1.90;;;17.60;99.90;;;;;;5066781;28;20436;-70
2023/07/01 09:52:35;;;;;;;4.43;1.98;;;17.60;99.90;;;;;;5053072;28;20040;-71
2023/07/01 09:55:03;;;;;;;4.32;1.92;;;17.70;99.90;;;;;;5059575;28;20068;-70
2023/07/01 09:57:29;;;;;;;4.68;1.83;;;17.70;99.90;;;;;;5069842;28;20082;-71
2023/07/01 09:59:56;;;;;;;3.30;1.80;;;17.70;99.90;;;;;;5065935;28;20035;-71
2023/07/01 10:02:22;;;;;;;5.43;2.13;;;17.70;99.90;;;;;;5069218;28;20367;-71
2023/07/01 10:04:48;;;;;;;5.28;2.20;;;17.70;99.90;;;;;;5070642;28;20025;-71
2023/07/01 10:07:14;;;;;;;3.92;2.08;;;17.70;99.90;;;;;;5047429;28;20482;-71
2023/07/01 10:09:47;;;;;;;4.45;2.15;;;17.70;99.90;;;;;;5065256;28;20126;-71
2023/07/01 10:12:17;;;;;;;4.32;1.95;;;17.70;99.90;;;;;;5079478;28;20036;-71
2023/07/01 10:14:50;;;;;;;3.80;1.75;;;17.70;99.90;;;;;;5058674;28;20035;-71
2023/07/01 10:17:18;;;;;;;4.47;2.05;;;17.70;99.90;;;;;;5070796;28;20123;-71
2023/07/01 10:19:46;;;;;;;4.03;1.90;;;17.70;99.90;;;;;;5068960;28;20090;-71
2023/07/01 10:22:29;;;;;;;5.43;2.60;;;17.80;99.90;;;;;;5060939;28;20033;-71
2023/07/01 10:25:06;;;;;;;4.20;2.15;;;17.80;99.90;;;;;;5065517;28;20048;-72
2023/07/01 10:27:44;;;;;;;5.72;1.90;;;17.90;99.90;;;;;;5073810;28;20123;-71
2023/07/01 10:30:12;;;;;;;4.90;2.20;;;17.90;99.90;;;;;;5059873;28;20040;-72
2023/07/01 10:32:38;;;;;;;6.15;2.72;;;17.90;99.90;;;;;;5069847;28;20503;-72
2023/07/01 10:35:03;;;;;;;5.32;2.75;;;18.00;99.90;;;;;;5065919;28;20126;-71
2023/07/01 10:37:31;;;;;;;5.53;2.78;;;18.00;99.90;;;;;;5060575;28;20404;-71
2023/07/01 10:39:58;;;;;;;5.28;2.70;;;18.00;99.90;;;;;;5059995;28;20070;-72
2023/07/01 10:42:31;;;;;;;6.60;3.15;;;18.10;99.90;;;;;;5065490;28;20032;-72
2023/07/01 10:45:12;;;;;;;4.95;2.58;;;18.10;99.90;;;;;;5064745;28;20032;-72
2023/07/01 10:47:42;;;;;;;5.97;2.83;;;18.10;99.90;;;;;;5071793;28;20040;-72
2023/07/01 10:50:10;;;;;;;6.38;2.80;;;18.10;99.90;;;;;;5058129;28;20925;-72
2023/07/01 10:53:11;;;;;;;6.07;2.65;;;18.20;99.90;;;;;;5059430;28;20067;-71
2023/07/01 10:55:46;;;;;;;5.20;2.45;;;18.20;99.90;;;;;;5027736;28;20095;-72
2023/07/01 10:58:23;;;;;;;4.63;2.13;;;18.20;99.90;;;;;;5061672;28;20055;-72
2023/07/01 11:00:56;;;;;;;4.80;2.08;;;18.30;99.90;;;;;;5070644;28;20032;-72
2023/07/01 11:03:34;;;;;;;5.53;2.42;;;18.20;99.90;;;;;;5062997;28;20033;-71
2023/07/01 11:06:02;;;;;;;4.97;2.00;;;18.20;99.90;;;;;;5067817;28;20139;-71
2023/07/01 11:08:29;;;;;;;5.25;2.55;;;18.20;99.90;;;;;;5066842;28;20036;-71
2023/07/01 11:10:55;;;;;;;5.97;2.53;;;18.20;99.90;;;;;;5069561;28;20401;-72
2023/07/01 11:13:22;;;;;;;4.85;2.20;;;18.30;99.90;;;;;;5068448;28;20486;-73
2023/07/01 11:16:04;;;;;;;4.85;2.17;;;18.20;99.90;;;;;;5053502;28;20502;-72
2023/07/01 11:18:47;;;;;;;5.38;2.10;;;18.20;99.90;;;;;;5069147;28;20060;-74
2023/07/01 11:21:17;;;;;;;5.10;2.40;;;18.20;99.90;;;;;;5046043;28;20165;-74
2023/07/01 11:23:54;;;;;;;5.55;2.25;;;18.30;99.90;;;;;;5074461;28;20509;-74
2023/07/01 11:26:28;;;;;;;4.50;2.33;;;18.30;99.90;;;;;;5080871;28;20060;-74
2023/07/01 11:28:53;;;;;;;5.07;2.25;;;18.30;99.90;;;;;;5068047;28;20410;-74
2023/07/01 11:31:22;;;;;;;5.40;2.20;;;18.30;99.90;;;;;;5068720;28;20044;-74
2023/07/01 11:33:50;;;;;;;5.45;2.03;;;18.30;99.90;;;;;;5055273;28;20067;-74
2023/07/01 11:36:17;;;;;;;4.38;1.88;;;18.30;99.90;;;;;;5067043;28;20131;-74
2023/07/01 11:38:45;;;;;;;3.72;1.80;;;18.30;99.90;;;;;;5071570;28;20036;-74
2023/07/01 11:41:19;;;;;;;3.47;1.60;;;18.30;99.90;;;;;;5062053;28;20084;-74
2023/07/01 11:43:45;;;;;;;3.97;1.77;;;18.40;99.90;;;;;;5077220;28;20037;-74
2023/07/01 11:46:12;;;;;;;4.00;1.70;;;18.30;99.90;;;;;;5060970;28;20041;-74
2023/07/01 11:48:39;;;;;;;2.83;1.38;;;18.30;99.90;;;;;;5074301;28;20055;-74
2023/07/01 11:51:05;;;;;;;4.18;1.48;;;18.40;99.90;;;;;;5069439;28;20521;-74
2023/07/01 11:53:31;;;;;;;3.90;1.50;;;18.40;99.90;;;;;;5071527;28;20037;-74
2023/07/01 11:55:58;;;;;;;3.17;1.30;;;18.30;99.90;;;;;;5070321;28;20159;-73
2023/07/01 11:58:37;;;;;;;3.22;1.45;;;18.40;99.90;;;;;;5067202;28;20471;-73
2023/07/01 12:01:03;;;;;;;3.83;1.63;;;18.40;99.90;;;;;;5055372;28;20028;-74
2023/07/01 12:03:33;;;;;;;4.43;1.50;;;18.40;99.90;;;;;;5063180;28;20285;-74
2023/07/01 12:05:59;;;;;;;3.78;1.30;;;18.40;99.90;;;;;;5064183;28;20501;-74
2023/07/01 12:08:25;;;;;;;3.58;1.17;;;18.40;99.90;;;;;;5067375;28;20033;-72
2023/07/01 12:10:52;;;;;;;2.97;1.17;;;18.40;99.90;;;;;;5065065;28;20090;-74
2023/07/01 12:13:30;;;;;;;2.22;0.98;;;18.40;99.90;;;;;;5050840;28;20089;-74
2023/07/01 12:15:59;;;;;;;2.63;1.15;;;18.40;99.90;;;;;;5063873;28;20398;-73
2023/07/01 12:18:27;;;;;;;4.32;1.20;;;18.50;99.90;;;;;;5066647;28;20028;-73
2023/07/01 12:20:54;;;;;;;2.28;0.88;;;18.50;99.90;;;;;;5064678;28;20028;-74
2023/07/01 12:23:19;;;;;;;2.20;1.10;;;18.60;99.90;;;;;;5056465;28;20032;-71
2023/07/01 12:25:45;;;;;;;2.60;1.08;;;18.60;99.90;;;;;;5063161;28;20094;-71
2023/07/01 12:28:11;;;;;;;2.13;0.93;;;18.90;99.90;;;;;;5053417;28;20504;-71
2023/07/01 12:30:36;;;;;;;3.40;0.70;;;18.90;99.90;;;;;;5067520;28;20052;-72
2023/07/01 12:33:02;;;;;;;2.38;1.20;;;19.00;99.90;;;;;;5070815;28;20040;-72
2023/07/01 12:35:28;;;;;;;1.67;0.70;;;19.00;99.90;;;;;;5069563;28;20035;-72
2023/07/01 12:37:56;;;;;;;1.88;0.82;;;19.00;99.90;;;;;;5072738;28;20025;-72
2023/07/01 12:40:21;;;;;;;2.83;1.10;;;19.00;99.90;;;;;;5055017;28;20071;-72
2023/07/01 12:42:51;;;;;;;2.55;1.20;;;19.00;99.90;;;;;;5070227;28;20063;-72
2023/07/01 12:45:16;;;;;;;2.95;0.98;;;18.90;99.90;;;;;;5066990;28;20065;-72